Time,TemperatureF,DewpointF,PressureIn,WindDirection,WindDirectionDegrees,WindSpeedMPH,WindSpeedGustMPH,Humidity,HourlyPrecipIn,Conditions,Clouds,dailyrainin,SoftwareType,DateUTC
2013-01-22 00:00:00,25.9,19.0,30.33,NNW,338,0.0,0.0,74,0.00,,,0.00,weatherlink.com 1.10,2013-01-22 06:00:00,
2013-01-22 00:15:00,26.3,19.0,30.32,NNW,339,0.0,0.0,74,0.00,,,0.00,weatherlink.com 1.10,2013-01-22 06:15:00,
2013-01-22 00:30:00,26.5,19.0,30.32,NNW,338,0.0,0.0,74,0.00,,,0.00,weatherlink.com 1.10,2013-01-22 06:30:00,
2013-01-22 00:45:00,26.0,19.0,30.32,NNW,338,0.0,0.0,76,0.00,,,0.00,weatherlink.com 1.10,2013-01-22 06:45:00,
2013-01-22 01:00:00,25.8,20.0,30.32,NNW,338,0.0,0.0,78,0.00,,,0.00,weatherlink.com 1.10,2013-01-22 07:00:00,
2013-01-22 01:15:00,26.3,20.0,30.31,South,179,0.0,1.0,76,0.00,,,0.00,weatherlink.com 1.10,2013-01-22 07:15:00,
2013-01-22 01:30:00,26.0,19.0,30.31,South,181,0.0,0.0,74,0.00,,,0.00,weatherlink.com 1.10,2013-01-22 07:30:00,
2013-01-22 01:45:00,25.3,19.0,30.32,South,180,0.0,0.0,76,0.00,,,0.00,weatherlink.com 1.10,2013-01-22 07:45:00,
2013-01-22 02:00:00,24.9,19.0,30.31,South,181,0.0,0.0,77,0.00,,,0.00,weatherlink.com 1.10,2013-01-22 08:00:00,
2013-01-22 02:16:00,24.9,19.0,30.31,South,181,0.0,0.0,78,0.00,,,0.00,weatherlink.com 1.10,2013-01-22 08:16:00,
2013-01-22 02:30:00,26.2,19.0,30.31,South,180,0.0,0.0,74,0.00,,,0.00,weatherlink.com 1.10,2013-01-22 08:30:00,
2013-01-22 02:45:00,26.2,19.0,30.32,South,180,0.0,0.0,74,0.00,,,0.00,weatherlink.com 1.10,2013-01-22 08:45:00,
2013-01-22 03:00:00,27.3,19.0,30.32,South,180,0.0,0.0,70,0.00,,,0.00,weatherlink.com 1.10,2013-01-22 09:00:00,
2013-01-22 03:16:00,27.1,19.0,30.31,SW,222,0.0,1.0,71,0.00,,,0.00,weatherlink.com 1.10,2013-01-22 09:16:00,
2013-01-22 03:30:00,27.1,18.0,30.32,SSW,207,0.0,0.0,69,0.00,,,0.00,weatherlink.com 1.10,2013-01-22 09:30:00,
2013-01-22 03:45:00,26.3,18.0,30.32,SSW,207,0.0,0.0,70,0.00,,,0.00,weatherlink.com 1.10,2013-01-22 09:45:00,
2013-01-22 04:00:00,25.6,18.0,30.32,SSW,207,0.0,0.0,72,0.00,,,0.00,weatherlink.com 1.10,2013-01-22 10:00:00,
2013-01-22 04:15:00,24.2,19.0,30.32,SSW,207,0.0,0.0,81,0.00,,,0.00,weatherlink.com 1.10,2013-01-22 10:15:00,
2013-01-22 04:31:00,23.6,19.0,30.33,SSW,207,0.0,0.0,82,0.00,,,0.00,weatherlink.com 1.10,2013-01-22 10:31:00,
2013-01-22 04:46:00,23.2,18.0,30.33,SSW,207,0.0,0.0,81,0.00,,,0.00,weatherlink.com 1.10,2013-01-22 10:46:00,
2013-01-22 05:01:00,22.9,18.0,30.33,SSW,207,0.0,0.0,81,0.00,,,0.00,weatherlink.com 1.10,2013-01-22 11:01:00,
2013-01-22 05:16:00,22.4,17.0,30.34,SSW,207,0.0,0.0,81,0.00,,,0.00,weatherlink.com 1.10,2013-01-22 11:16:00,
2013-01-22 05:31:00,22.2,18.0,30.33,SSW,207,0.0,0.0,82,0.00,,,0.00,weatherlink.com 1.10,2013-01-22 11:31:00,
2013-01-22 05:46:00,21.9,17.0,30.33,SSW,207,0.0,0.0,82,0.00,,,0.00,weatherlink.com 1.10,2013-01-22 11:46:00,
2013-01-22 06:01:00,22.0,17.0,30.33,SSW,207,0.0,0.0,82,0.00,,,0.00,weatherlink.com 1.10,2013-01-22 12:01:00,
2013-01-22 06:16:00,21.8,17.0,30.34,SSW,207,0.0,0.0,82,0.00,,,0.00,weatherlink.com 1.10,2013-01-22 12:16:00,
2013-01-22 06:31:00,21.6,17.0,30.34,SSW,207,0.0,0.0,83,0.00,,,0.00,weatherlink.com 1.10,2013-01-22 12:31:00,
2013-01-22 06:46:00,21.4,17.0,30.34,SSW,207,0.0,0.0,82,0.00,,,0.00,weatherlink.com 1.10,2013-01-22 12:46:00,
2013-01-22 07:01:00,21.0,17.0,30.34,SSW,207,0.0,0.0,83,0.00,,,0.00,weatherlink.com 1.10,2013-01-22 13:01:00,
2013-01-22 08:01:00,20.7,17.0,30.35,SW,214,0.0,0.0,86,0.00,,,0.00,weatherlink.com 1.10,2013-01-22 14:01:00,
2013-01-22 08:16:00,22.1,19.0,30.35,SW,214,0.0,0.0,88,0.00,,,0.00,weatherlink.com 1.10,2013-01-22 14:16:00,
2013-01-22 08:31:00,24.5,22.0,30.35,SW,214,0.0,0.0,88,0.00,,,0.00,weatherlink.com 1.10,2013-01-22 14:31:00,
2013-01-22 08:46:00,29.5,24.0,30.35,ESE,107,0.0,0.0,80,0.00,,,0.00,weatherlink.com 1.10,2013-01-22 14:46:00,
2013-01-22 09:01:00,32.8,23.0,30.34,SSE,159,2.0,6.0,67,0.00,,,0.00,weatherlink.com 1.10,2013-01-22 15:01:00,
2013-01-22 09:16:00,34.0,24.0,30.35,ESE,117,1.0,2.0,66,0.00,,,0.00,weatherlink.com 1.10,2013-01-22 15:16:00,
2013-01-22 10:01:00,39.3,28.0,30.35,SE,134,3.0,5.0,63,0.00,,,0.00,weatherlink.com 1.10,2013-01-22 16:01:00,
2013-01-22 10:17:00,41.5,28.0,30.35,SE,141,3.0,4.0,59,0.00,,,0.00,weatherlink.com 1.10,2013-01-22 16:17:00,
2013-01-22 10:31:00,42.8,29.0,30.34,SE,133,4.0,9.0,58,0.00,,,0.00,weatherlink.com 1.10,2013-01-22 16:31:00,
2013-01-22 10:47:00,44.8,30.0,30.35,SE,143,3.0,6.0,57,0.00,,,0.00,weatherlink.com 1.10,2013-01-22 16:47:00,
2013-01-22 11:02:00,46.2,31.0,30.34,SW,218,1.0,8.0,55,0.00,,,0.00,weatherlink.com 1.10,2013-01-22 17:02:00,
2013-01-22 11:17:00,47.4,32.0,30.34,SSE,156,0.0,7.0,55,0.00,,,0.00,weatherlink.com 1.10,2013-01-22 17:17:00,
2013-01-22 11:32:00,49.1,30.0,30.34,SE,141,3.0,7.0,49,0.00,,,0.00,weatherlink.com 1.10,2013-01-22 17:32:00,
2013-01-22 11:47:00,50.0,30.0,30.34,SSE,165,2.0,5.0,47,0.00,,,0.00,weatherlink.com 1.10,2013-01-22 17:47:00,
2013-01-22 12:02:00,51.2,30.0,30.34,SW,229,2.0,6.0,45,0.00,,,0.00,weatherlink.com 1.10,2013-01-22 18:02:00,
2013-01-22 12:17:00,52.1,30.0,30.32,SE,124,1.0,5.0,43,0.00,,,0.00,weatherlink.com 1.10,2013-01-22 18:17:00,
2013-01-22 12:32:00,52.7,30.0,30.31,SW,231,5.0,7.0,42,0.00,,,0.00,weatherlink.com 1.10,2013-01-22 18:32:00,
2013-01-22 12:47:00,53.1,30.0,30.30,WSW,256,2.0,8.0,42,0.00,,,0.00,weatherlink.com 1.10,2013-01-22 18:47:00,
2013-01-22 13:02:00,54.2,31.0,30.28,WNW,294,0.0,8.0,42,0.00,,,0.00,weatherlink.com 1.10,2013-01-22 19:02:00,
2013-01-22 13:17:00,54.8,31.0,30.27,SSW,211,7.0,10.0,40,0.00,,,0.00,weatherlink.com 1.10,2013-01-22 19:17:00,
2013-01-22 13:32:00,56.1,31.0,30.26,SSW,208,2.0,8.0,39,0.00,,,0.00,weatherlink.com 1.10,2013-01-22 19:32:00,
2013-01-22 13:47:00,56.9,31.0,30.25,SSE,149,1.0,7.0,38,0.00,,,0.00,weatherlink.com 1.10,2013-01-22 19:47:00,
2013-01-22 14:02:00,57.5,33.0,30.24,SE,136,3.0,10.0,40,0.00,,,0.00,weatherlink.com 1.10,2013-01-22 20:02:00,
2013-01-22 14:17:00,58.3,33.0,30.23,SW,221,3.0,7.0,39,0.00,,,0.00,weatherlink.com 1.10,2013-01-22 20:17:00,
2013-01-22 14:32:00,57.4,34.0,30.24,SW,217,1.0,9.0,41,0.00,,,0.00,weatherlink.com 1.10,2013-01-22 20:32:00,
2013-01-22 14:47:00,57.1,35.0,30.23,SW,214,1.0,6.0,43,0.00,,,0.00,weatherlink.com 1.10,2013-01-22 20:47:00,
2013-01-22 15:02:00,57.9,36.0,30.23,SSE,150,5.0,7.0,44,0.00,,,0.00,weatherlink.com 1.10,2013-01-22 21:02:00,
2013-01-22 15:17:00,58.5,36.0,30.22,SSW,201,2.0,8.0,43,0.00,,,0.00,weatherlink.com 1.10,2013-01-22 21:17:00,
2013-01-22 15:33:00,58.7,36.0,30.22,SSE,158,3.0,7.0,43,0.00,,,0.00,weatherlink.com 1.10,2013-01-22 21:33:00,
2013-01-22 15:47:00,58.9,37.0,30.22,SE,145,2.0,7.0,44,0.00,,,0.00,weatherlink.com 1.10,2013-01-22 21:47:00,
2013-01-22 16:03:00,59.8,38.0,30.22,SE,146,1.0,5.0,44,0.00,,,0.00,weatherlink.com 1.10,2013-01-22 22:03:00,
2013-01-22 16:18:00,60.2,37.0,30.22,SE,129,1.0,4.0,43,0.00,,,0.00,weatherlink.com 1.10,2013-01-22 22:18:00,
2013-01-22 16:33:00,60.1,37.0,30.22,SE,135,0.0,4.0,43,0.00,,,0.00,weatherlink.com 1.10,2013-01-22 22:33:00,
2013-01-22 16:48:00,60.0,38.0,30.22,SE,124,1.0,3.0,45,0.00,,,0.00,weatherlink.com 1.10,2013-01-22 22:48:00,
2013-01-22 17:03:00,59.3,39.0,30.22,East,97,0.0,3.0,47,0.00,,,0.00,weatherlink.com 1.10,2013-01-22 23:03:00,
2013-01-22 17:18:00,57.8,39.0,30.22,SE,124,0.0,2.0,49,0.00,,,0.00,weatherlink.com 1.10,2013-01-22 23:18:00,
2013-01-22 17:33:00,56.2,39.0,30.22,East,101,0.0,1.0,52,0.00,,,0.00,weatherlink.com 1.10,2013-01-22 23:33:00,
2013-01-22 17:48:00,54.7,38.0,30.23,East,101,0.0,0.0,54,0.00,,,0.00,weatherlink.com 1.10,2013-01-22 23:48:00,
2013-01-22 18:03:00,52.7,38.0,30.23,ESE,102,0.0,0.0,58,0.00,,,0.00,weatherlink.com 1.10,2013-01-23 00:03:00,
2013-01-22 18:18:00,51.2,38.0,30.23,SE,141,0.0,0.0,61,0.00,,,0.00,weatherlink.com 1.10,2013-01-23 00:18:00,
2013-01-22 18:33:00,51.7,38.0,30.23,SSE,158,0.0,4.0,61,0.00,,,0.00,weatherlink.com 1.10,2013-01-23 00:33:00,
2013-01-22 18:48:00,51.1,39.0,30.23,SSE,149,2.0,4.0,63,0.00,,,0.00,weatherlink.com 1.10,2013-01-23 00:48:00,
2013-01-22 19:03:00,50.8,39.0,30.23,SE,143,0.0,3.0,64,0.00,,,0.00,weatherlink.com 1.10,2013-01-23 01:03:00,
2013-01-22 19:18:00,50.0,39.0,30.23,SSE,153,2.0,2.0,66,0.00,,,0.00,weatherlink.com 1.10,2013-01-23 01:18:00,
2013-01-22 19:33:00,50.0,40.0,30.23,SE,139,2.0,4.0,68,0.00,,,0.00,weatherlink.com 1.10,2013-01-23 01:33:00,
2013-01-22 19:48:00,50.5,40.0,30.23,SSE,160,2.0,6.0,68,0.00,,,0.00,weatherlink.com 1.10,2013-01-23 01:48:00,
2013-01-22 20:03:00,50.8,41.0,30.23,SE,143,1.0,5.0,69,0.00,,,0.00,weatherlink.com 1.10,2013-01-23 02:03:00,
2013-01-22 20:18:00,50.3,40.0,30.23,SE,146,0.0,4.0,69,0.00,,,0.00,weatherlink.com 1.10,2013-01-23 02:18:00,
2013-01-22 20:33:00,49.2,40.0,30.23,SE,132,3.0,4.0,71,0.00,,,0.00,weatherlink.com 1.10,2013-01-23 02:33:00,
2013-01-22 20:48:00,48.4,40.0,30.23,SSE,150,1.0,3.0,73,0.00,,,0.00,weatherlink.com 1.10,2013-01-23 02:48:00,
2013-01-22 21:03:00,48.2,41.0,30.23,SE,139,0.0,3.0,75,0.00,,,0.00,weatherlink.com 1.10,2013-01-23 03:03:00,
2013-01-22 21:18:00,48.1,41.0,30.23,SSE,157,1.0,3.0,77,0.00,,,0.00,weatherlink.com 1.10,2013-01-23 03:18:00,
2013-01-22 21:33:00,48.5,42.0,30.23,ESE,108,0.0,4.0,79,0.00,,,0.00,weatherlink.com 1.10,2013-01-23 03:33:00,
2013-01-22 21:48:00,49.8,44.0,30.23,SE,128,2.0,6.0,79,0.00,,,0.00,weatherlink.com 1.10,2013-01-23 03:48:00,
2013-01-22 22:03:00,50.4,44.0,30.23,SSE,149,3.0,8.0,78,0.00,,,0.00,weatherlink.com 1.10,2013-01-23 04:03:00,
2013-01-22 22:18:00,50.3,44.0,30.23,SSE,152,3.0,9.0,78,0.00,,,0.00,weatherlink.com 1.10,2013-01-23 04:18:00,
2013-01-22 22:33:00,50.0,43.0,30.23,SSE,156,4.0,8.0,78,0.00,,,0.00,weatherlink.com 1.10,2013-01-23 04:33:00,
2013-01-22 22:48:00,49.8,44.0,30.23,SE,141,3.0,7.0,79,0.00,,,0.00,weatherlink.com 1.10,2013-01-23 04:48:00,
2013-01-22 23:04:00,49.4,44.0,30.24,ESE,116,6.0,7.0,80,0.00,,,0.00,weatherlink.com 1.10,2013-01-23 05:04:00,
2013-01-22 23:18:00,49.0,43.0,30.23,ESE,117,5.0,8.0,81,0.00,,,0.00,weatherlink.com 1.10,2013-01-23 05:18:00,
2013-01-22 23:33:00,48.6,43.0,30.24,SE,133,2.0,7.0,82,0.00,,,0.00,weatherlink.com 1.10,2013-01-23 05:33:00,
2013-01-22 23:48:00,48.1,43.0,30.24,SE,124,0.0,5.0,82,0.00,,,0.00,weatherlink.com 1.10,2013-01-23 05:48:00,